createdAt,value
2018-02-23T00:02:23.764Z,98229.91
2018-02-23T00:04:51.280Z,98233.53
2018-02-23T00:07:18.791Z,98230.03
2018-02-23T00:09:46.362Z,98226.80
2018-02-23T00:12:13.931Z,98231.59
2018-02-23T00:14:41.455Z,98228.18
2018-02-23T00:17:09.023Z,98225.28
2018-02-23T00:19:36.580Z,98227.39
2018-02-23T00:22:04.073Z,98230.86
2018-02-23T00:24:31.604Z,98230.03
2018-02-23T00:26:59.103Z,98232.13
2018-02-23T00:29:26.659Z,98230.02
2018-02-23T00:31:54.200Z,98225.19
2018-02-23T00:34:21.726Z,98233.87
2018-02-23T00:36:49.309Z,98230.39
2018-02-23T00:39:16.820Z,98229.18
2018-02-23T00:41:44.311Z,98229.65
2018-02-23T00:44:11.895Z,98224.33
2018-02-23T00:46:39.548Z,98222.69
2018-02-23T00:49:07.093Z,98220.50
2018-02-23T00:51:34.587Z,98226.59
2018-02-23T00:54:02.108Z,98225.02
2018-02-23T00:56:30.597Z,98225.42
2018-02-23T00:58:58.183Z,98226.84
2018-02-23T01:01:25.704Z,98224.22
2018-02-23T01:03:53.280Z,98229.81
2018-02-23T01:06:20.772Z,98219.23
2018-02-23T01:08:48.444Z,98225.00
2018-02-23T01:11:15.935Z,98222.86
2018-02-23T01:13:43.489Z,98219.75
2018-02-23T01:16:10.997Z,98213.22
2018-02-23T01:18:38.523Z,98218.06
2018-02-23T01:21:06.025Z,98217.65
2018-02-23T01:23:33.619Z,98217.64
2018-02-23T01:26:01.111Z,98223.91
2018-02-23T01:28:28.612Z,98214.27
2018-02-23T01:30:56.231Z,98214.59
2018-02-23T01:33:23.725Z,98212.39
2018-02-23T01:35:51.355Z,98219.84
2018-02-23T01:38:18.848Z,98215.16
2018-02-23T01:40:46.486Z,98215.16
2018-02-23T01:43:13.977Z,98205.80
2018-02-23T01:45:41.488Z,98206.64
2018-02-23T01:48:08.979Z,98203.67
2018-02-23T01:50:49.319Z,98192.16
2018-02-23T01:53:16.863Z,98187.84
2018-02-23T01:55:44.375Z,98195.70
2018-02-23T01:58:11.869Z,98201.91
2018-02-23T02:00:39.411Z,98196.27
2018-02-23T02:03:07.016Z,98189.80
2018-02-23T02:05:34.522Z,98190.31
2018-02-23T02:08:02.020Z,98192.52
2018-02-23T02:10:29.536Z,98191.58
2018-02-23T02:12:57.028Z,98181.42
2018-02-23T02:15:24.590Z,98184.91
2018-02-23T02:17:52.095Z,98187.53
2018-02-23T02:20:19.611Z,98182.31
2018-02-23T02:22:47.171Z,98182.18
2018-02-23T02:25:14.764Z,98182.69
2018-02-23T02:27:42.264Z,98179.37
2018-02-23T02:30:09.782Z,98173.74
2018-02-23T02:32:37.332Z,98177.28
2018-02-23T02:35:04.940Z,98176.53
2018-02-23T02:37:32.503Z,98172.59
2018-02-23T02:40:00.023Z,98169.84
2018-02-23T02:42:27.551Z,98176.20
2018-02-23T02:44:55.068Z,98173.63
2018-02-23T02:47:22.676Z,98172.11
2018-02-23T02:49:50.212Z,98167.33
2018-02-23T02:52:17.708Z,98169.96
2018-02-23T02:54:45.339Z,98167.42
2018-02-23T02:57:12.934Z,98164.37
2018-02-23T02:59:40.460Z,98160.10
2018-02-23T03:02:07.951Z,98159.23
2018-02-23T03:04:35.480Z,98154.48
2018-02-23T03:07:03.064Z,98154.48
2018-02-23T03:09:30.601Z,98149.17
2018-02-23T03:11:58.128Z,98150.53
2018-02-23T03:14:25.639Z,98153.69
2018-02-23T03:16:53.295Z,98147.48
2018-02-23T03:19:20.842Z,98151.70
2018-02-23T03:21:48.403Z,98148.33
2018-02-23T03:24:15.967Z,98157.16
2018-02-23T03:26:43.539Z,98159.59
2018-02-23T03:29:11.063Z,98155.27
2018-02-23T03:31:38.576Z,98153.22
2018-02-23T03:34:06.067Z,98155.11
2018-02-23T03:36:33.583Z,98153.16
2018-02-23T03:39:01.083Z,98147.69
2018-02-23T03:41:28.671Z,98146.99
2018-02-23T03:43:56.195Z,98147.63
2018-02-23T03:46:23.796Z,98146.91
2018-02-23T03:48:51.296Z,98141.22
2018-02-23T03:51:18.805Z,98137.70
2018-02-23T03:53:46.307Z,98137.17
2018-02-23T03:56:13.832Z,98137.55
2018-02-23T03:58:41.319Z,98144.38
2018-02-23T04:01:08.843Z,98131.38
2018-02-23T04:03:36.339Z,98135.28
2018-02-23T04:06:03.871Z,98139.38
2018-02-23T04:08:31.393Z,98137.16
2018-02-23T04:10:58.981Z,98135.41
2018-02-23T04:13:26.473Z,98132.22
2018-02-23T04:15:54.101Z,98129.91
2018-02-23T04:18:21.599Z,98132.11
2018-02-23T04:20:49.218Z,98133.02
2018-02-23T04:23:16.793Z,98135.69
2018-02-23T04:25:44.352Z,98141.16
2018-02-23T04:28:11.928Z,98138.70
2018-02-23T04:30:39.477Z,98134.33
2018-02-23T04:33:06.986Z,98128.70
2018-02-23T04:35:34.586Z,98139.59
2018-02-23T04:38:02.080Z,98130.48
2018-02-23T04:40:29.638Z,98133.21
2018-02-23T04:42:57.119Z,98132.42
2018-02-23T04:45:24.718Z,98130.22
2018-02-23T04:47:52.275Z,98136.27
2018-02-23T04:50:19.772Z,98137.68
2018-02-23T04:52:47.294Z,98136.41
2018-02-23T04:55:14.791Z,98137.72
2018-02-23T04:57:42.302Z,98136.57
2018-02-23T05:00:09.803Z,98130.42
2018-02-23T05:02:37.320Z,98132.77
2018-02-23T05:05:04.820Z,98126.58
2018-02-23T05:07:32.449Z,98124.84
2018-02-23T05:10:00.010Z,98128.31
2018-02-23T05:12:27.541Z,98128.69
2018-02-23T05:14:55.044Z,98127.33
2018-02-23T05:17:22.568Z,98130.38
2018-02-23T05:19:50.067Z,98123.16
2018-02-23T05:22:17.598Z,98124.95
2018-02-23T05:24:45.164Z,98124.05
2018-02-23T05:27:12.685Z,98127.27
2018-02-23T05:29:40.176Z,98125.11
2018-02-23T05:32:07.688Z,98127.20
2018-02-23T05:34:35.190Z,98126.00
2018-02-23T05:37:02.751Z,98126.42
2018-02-23T05:39:30.251Z,98127.33
2018-02-23T05:41:57.791Z,98129.11
2018-02-23T05:44:25.332Z,98127.75
2018-02-23T05:46:52.895Z,98132.10
2018-02-23T05:49:20.469Z,98125.53
2018-02-23T05:51:48.031Z,98122.42
2018-02-23T05:54:15.531Z,98122.00
2018-02-23T05:56:43.043Z,98128.57
2018-02-23T05:59:10.544Z,98121.09
2018-02-23T06:01:38.063Z,98125.42
2018-02-23T06:04:05.558Z,98128.45
2018-02-23T06:06:33.268Z,98130.20
2018-02-23T06:09:00.767Z,98125.73
2018-02-23T06:11:28.284Z,98135.77
2018-02-23T06:13:55.844Z,98138.72
2018-02-23T06:16:27.319Z,98143.97
2018-02-23T06:18:58.348Z,98144.09
2018-02-23T06:21:26.007Z,98144.60
2018-02-23T06:23:53.509Z,98147.46
2018-02-23T06:26:21.004Z,98155.50
2018-02-23T06:28:48.576Z,98164.55
2018-02-23T06:31:16.071Z,98168.20
2018-02-23T06:33:43.604Z,98168.97
2018-02-23T06:36:11.132Z,98163.25
2018-02-23T06:38:38.647Z,98173.66
2018-02-23T06:41:06.208Z,98172.20
2018-02-23T06:43:33.736Z,98176.19
2018-02-23T06:46:01.292Z,98168.69
2018-02-23T06:48:28.814Z,98176.14
2018-02-23T06:50:56.392Z,98177.69
2018-02-23T06:53:23.912Z,98179.48
2018-02-23T06:55:51.415Z,98172.58
2018-02-23T06:58:18.928Z,98172.14
2018-02-23T07:00:46.420Z,98172.16
2018-02-23T07:03:14.033Z,98172.25
2018-02-23T07:05:41.531Z,98171.31
2018-02-23T07:08:09.532Z,98174.16
2018-02-23T07:10:37.028Z,98172.75
2018-02-23T07:13:04.541Z,98168.80
2018-02-23T07:15:32.027Z,98164.34
2018-02-23T07:17:59.536Z,98164.55
2018-02-23T07:20:27.025Z,98160.66
2018-02-23T07:22:54.583Z,98169.81
2018-02-23T07:25:22.160Z,98166.80
2018-02-23T07:27:49.703Z,98169.70
2018-02-23T07:30:17.264Z,98172.80
2018-02-23T07:32:44.780Z,98168.39
2018-02-23T07:35:12.375Z,98174.45
2018-02-23T07:37:39.948Z,98167.79
2018-02-23T07:40:07.567Z,98171.62
2018-02-23T07:42:35.162Z,98171.74
2018-02-23T07:45:02.730Z,98172.78
2018-02-23T07:47:30.267Z,98172.63
2018-02-23T07:49:57.950Z,98170.89
2018-02-23T07:52:25.479Z,98172.26
2018-02-23T07:54:53.182Z,98175.31
2018-02-23T07:57:20.671Z,98180.89
2018-02-23T07:59:48.179Z,98180.85
2018-02-23T08:02:15.667Z,98179.75
2018-02-23T08:04:43.184Z,98180.23
2018-02-23T08:07:10.759Z,98179.87
2018-02-23T08:09:38.280Z,98179.41
2018-02-23T08:12:05.776Z,98182.14
2018-02-23T08:14:33.292Z,98185.30
2018-02-23T08:17:00.859Z,98191.98
2018-02-23T08:19:28.388Z,98194.91
2018-02-23T08:21:55.974Z,98187.08
2018-02-23T08:24:23.589Z,98187.72
2018-02-23T08:26:51.087Z,98188.82
2018-02-23T08:29:18.617Z,98190.19
2018-02-23T08:31:46.151Z,98190.03
2018-02-23T08:34:13.845Z,98199.25
2018-02-23T08:36:41.351Z,98192.98
2018-02-23T08:39:08.943Z,98193.19
2018-02-23T08:41:36.440Z,98206.72
2018-02-23T08:44:03.951Z,98204.34
2018-02-23T08:46:31.442Z,98199.62
2018-02-23T08:48:58.971Z,98202.30
2018-02-23T08:51:26.528Z,98194.83
2018-02-23T08:53:54.071Z,98199.82
2018-02-23T08:56:21.655Z,98204.50
2018-02-23T08:58:49.182Z,98207.61
2018-02-23T09:01:16.763Z,98192.11
2018-02-23T09:03:44.291Z,98206.86
2018-02-23T09:06:11.903Z,98210.87
2018-02-23T09:08:39.408Z,98197.94
2018-02-23T09:11:06.903Z,98206.53
2018-02-23T09:13:34.411Z,98195.87
2018-02-23T09:16:01.900Z,98199.22
2018-02-23T09:18:29.476Z,98205.02
2018-02-23T09:20:57.006Z,98198.23
2018-02-23T09:23:24.544Z,98206.30
2018-02-23T09:25:52.066Z,98201.27
2018-02-23T09:28:19.626Z,98202.66
2018-02-23T09:30:47.118Z,98203.33
2018-02-23T09:33:14.756Z,98198.28
2018-02-23T09:35:42.267Z,98206.10
2018-02-23T09:38:09.763Z,98200.73
2018-02-23T09:40:37.280Z,98197.22
2018-02-23T09:43:04.787Z,98205.84
2018-02-23T09:45:32.304Z,98208.38
2018-02-23T09:47:59.795Z,98211.95
2018-02-23T09:50:27.327Z,98217.66
2018-02-23T09:52:54.811Z,98203.47
2018-02-23T09:55:22.389Z,98204.44
2018-02-23T09:57:49.912Z,98206.08
2018-02-23T10:00:17.419Z,98201.94
2018-02-23T10:02:44.907Z,98206.23
2018-02-23T10:05:12.507Z,98202.19
2018-02-23T10:07:39.997Z,98202.63
2018-02-23T10:10:08.544Z,98204.56
2018-02-23T10:12:36.120Z,98201.19
2018-02-23T10:15:03.651Z,98204.16
2018-02-23T10:17:31.146Z,98212.78
2018-02-23T10:19:58.679Z,98210.58
2018-02-23T10:22:26.202Z,98213.89
2018-02-23T10:24:53.720Z,98209.77
2018-02-23T10:27:21.256Z,98209.48
2018-02-23T10:29:48.823Z,98209.80
2018-02-23T10:32:16.312Z,98209.02
2018-02-23T10:34:43.833Z,98216.13
2018-02-23T10:37:11.333Z,98215.95
2018-02-23T10:39:38.844Z,98214.89
2018-02-23T10:42:06.332Z,98210.77
2018-02-23T10:44:33.912Z,98211.87
2018-02-23T10:47:01.403Z,98206.58
2018-02-23T10:49:28.954Z,98212.59
2018-02-23T10:51:56.450Z,98208.62
2018-02-23T10:54:23.972Z,98205.90
2018-02-23T10:56:51.668Z,98201.80
2018-02-23T10:59:19.204Z,98210.78
2018-02-23T11:01:46.697Z,98208.08
2018-02-23T11:04:14.195Z,98207.41
2018-02-23T11:06:41.711Z,98201.11
2018-02-23T11:09:09.200Z,98208.52
2018-02-23T11:11:36.816Z,98208.81
2018-02-23T11:14:04.308Z,98206.33
2018-02-23T11:16:31.822Z,98201.62
2018-02-23T11:18:59.311Z,98199.28
2018-02-23T11:21:26.856Z,98199.09
2018-02-23T11:23:54.347Z,98201.32
2018-02-23T11:26:21.880Z,98199.89
2018-02-23T11:28:49.755Z,98187.85
2018-02-23T11:31:17.264Z,98185.27
2018-02-23T11:33:44.750Z,98188.46
2018-02-23T11:36:12.272Z,98187.53
2018-02-23T11:38:39.767Z,98188.30
2018-02-23T11:41:07.280Z,98185.34
2018-02-23T11:43:34.788Z,98188.94
2018-02-23T11:46:02.303Z,98182.08
2018-02-23T11:48:29.905Z,98187.58
2018-02-23T11:50:57.471Z,98190.38
2018-02-23T11:53:25.147Z,98185.31
2018-02-23T11:55:52.695Z,98186.27
2018-02-23T11:58:20.189Z,98181.89
2018-02-23T12:00:47.739Z,98179.09
2018-02-23T12:03:15.284Z,98183.35
2018-02-23T12:05:42.827Z,98186.53
2018-02-23T12:08:10.320Z,98186.31
2018-02-23T12:10:37.840Z,98184.50
2018-02-23T12:13:05.328Z,98185.22
2018-02-23T12:15:32.894Z,98190.19
2018-02-23T12:18:00.432Z,98189.20
2018-02-23T12:20:27.979Z,98180.81
2018-02-23T12:22:55.479Z,98182.62
2018-02-23T12:25:22.987Z,98184.04
2018-02-23T12:27:50.552Z,98187.59
2018-02-23T12:30:18.123Z,98181.64
2018-02-23T12:32:45.631Z,98185.02
2018-02-23T12:35:13.259Z,98182.02
2018-02-23T12:37:40.796Z,98185.34
2018-02-23T12:40:08.325Z,98188.22
2018-02-23T12:42:35.887Z,98184.14
2018-02-23T12:45:03.467Z,98179.95
2018-02-23T12:47:30.987Z,98187.92
2018-02-23T12:49:58.471Z,98189.81
2018-02-23T12:52:26.016Z,98185.50
2018-02-23T12:54:53.515Z,98194.08
2018-02-23T12:57:21.080Z,98189.14
2018-02-23T12:59:48.573Z,98186.58
2018-02-23T13:02:16.100Z,98184.83
2018-02-23T13:04:43.595Z,98188.48
2018-02-23T13:07:11.208Z,98187.42
2018-02-23T13:09:38.768Z,98192.04
2018-02-23T13:12:06.329Z,98187.45
2018-02-23T13:14:39.595Z,98190.22
2018-02-23T13:17:07.111Z,98184.15
2018-02-23T13:19:34.709Z,98186.56
2018-02-23T13:22:02.303Z,98189.92
2018-02-23T13:24:29.794Z,98191.84
2018-02-23T13:29:53.767Z,98185.94
2018-02-23T13:32:21.285Z,98193.15
2018-02-23T13:34:48.875Z,98186.42
2018-02-23T13:37:16.435Z,98186.91
2018-02-23T13:39:58.674Z,98197.98
2018-02-23T13:42:27.015Z,98194.80
2018-02-23T13:44:54.518Z,98190.65
2018-02-23T13:47:22.053Z,98196.92
2018-02-23T13:49:49.555Z,98185.43
2018-02-23T13:52:17.076Z,98192.76
2018-02-23T13:54:44.574Z,98188.75
2018-02-23T13:57:12.120Z,98194.69
2018-02-23T13:59:39.612Z,98198.89
2018-02-23T14:02:07.127Z,98194.48
2018-02-23T14:04:34.616Z,98194.37
2018-02-23T14:07:07.723Z,98205.94
2018-02-23T14:09:35.220Z,98203.83
2018-02-23T14:12:02.747Z,98208.43
2018-02-23T14:14:30.311Z,98203.88
2018-02-23T14:16:57.851Z,98208.58
2018-02-23T14:19:25.367Z,98209.37
2018-02-23T14:21:52.894Z,98212.26
2018-02-23T14:24:20.392Z,98210.41
2018-02-23T14:26:47.906Z,98211.79
2018-02-23T14:29:15.405Z,98213.12
2018-02-23T14:31:42.923Z,98214.86
2018-02-23T14:34:10.411Z,98204.59
2018-02-23T14:36:37.923Z,98203.80
2018-02-23T14:39:05.495Z,98220.86
2018-02-23T14:41:33.003Z,98212.64
2018-02-23T14:44:00.508Z,98198.31
2018-02-23T14:46:28.070Z,98203.63
2018-02-23T14:49:07.552Z,98189.39
2018-02-23T14:51:35.196Z,98199.98
2018-02-23T14:54:02.809Z,98202.41
2018-02-23T14:56:30.303Z,98194.67
2018-02-23T14:58:57.851Z,98201.22
2018-02-23T15:01:25.411Z,98199.39
2018-02-23T15:03:52.927Z,98204.81
2018-02-23T15:06:20.599Z,98207.05
2018-02-23T15:08:48.196Z,98208.59
2018-02-23T15:11:15.688Z,98206.55
2018-02-23T15:13:43.215Z,98205.30
2018-02-23T15:16:10.775Z,98189.95
2018-02-23T15:18:38.311Z,98186.55
2018-02-23T15:21:05.795Z,98195.92
2018-02-23T15:23:33.307Z,98188.78
2018-02-23T15:26:00.799Z,98199.86
2018-02-23T15:28:28.311Z,98190.12
2018-02-23T15:31:07.700Z,98192.19
2018-02-23T15:33:35.232Z,98198.19
2018-02-23T15:36:02.727Z,98202.94
2018-02-23T15:38:30.235Z,98210.66
2018-02-23T15:40:57.735Z,98209.81
2018-02-23T15:43:25.296Z,98212.72
2018-02-23T15:45:52.787Z,98209.66
2018-02-23T15:51:38.847Z,98221.39
2018-02-23T15:54:06.364Z,98216.30
2018-02-23T15:56:33.903Z,98228.67
2018-02-23T15:59:01.415Z,98216.36
2018-02-23T16:01:28.899Z,98218.08
2018-02-23T16:03:56.413Z,98221.20
2018-02-23T16:06:23.971Z,98230.66
2018-02-23T16:08:51.479Z,98228.48
2018-02-23T16:11:18.972Z,98227.73
2018-02-23T16:13:46.484Z,98225.52
2018-02-23T16:16:13.975Z,98232.45
2018-02-23T16:18:41.523Z,98227.30
2018-02-23T16:21:09.019Z,98228.47
2018-02-23T16:23:36.663Z,98229.11
2018-02-23T16:26:04.148Z,98237.43
2018-02-23T16:28:31.677Z,98238.53
2018-02-23T16:30:59.179Z,98242.97
2018-02-23T16:33:26.692Z,98243.16
2018-02-23T16:35:54.252Z,98256.36
2018-02-23T16:38:21.781Z,98246.83
2018-02-23T16:40:49.266Z,98249.84
2018-02-23T16:43:16.789Z,98247.08
2018-02-23T16:45:44.281Z,98259.59
2018-02-23T16:48:11.796Z,98265.00
2018-02-23T16:50:39.283Z,98262.42
2018-02-23T16:53:06.803Z,98256.79
2018-02-23T16:55:34.398Z,98263.32
2018-02-23T16:58:01.920Z,98268.67
2018-02-23T17:00:29.521Z,98278.81
2018-02-23T17:02:57.037Z,98269.29
2018-02-23T17:05:25.628Z,98272.44
2018-02-23T17:07:53.209Z,98268.87
2018-02-23T17:10:20.724Z,98269.34
2018-02-23T17:12:48.211Z,98279.85
2018-02-23T17:15:15.719Z,98279.44
2018-02-23T17:17:43.274Z,98270.65
2018-02-23T17:20:10.794Z,98280.00
2018-02-23T17:22:38.328Z,98272.95
2018-02-23T17:25:05.936Z,98274.22
2018-02-23T17:27:33.502Z,98275.26
2018-02-23T17:30:01.020Z,98279.10
2018-02-23T17:32:29.500Z,98268.64
2018-02-23T17:34:57.063Z,98272.36
2018-02-23T17:37:24.552Z,98271.09
2018-02-23T17:39:52.124Z,98273.67
2018-02-23T17:42:19.640Z,98272.55
2018-02-23T17:44:47.151Z,98268.98
2018-02-23T17:47:14.635Z,98268.52
2018-02-23T17:49:42.252Z,98269.81
2018-02-23T17:52:09.748Z,98271.61
2018-02-23T17:54:37.268Z,98271.94
2018-02-23T17:57:04.828Z,98277.09
2018-02-23T17:59:32.347Z,98279.43
2018-02-23T18:01:59.949Z,98274.37
2018-02-23T18:04:27.472Z,98267.70
2018-02-23T18:06:54.983Z,98266.91
2018-02-23T18:09:22.529Z,98276.06
2018-02-23T18:11:50.091Z,98275.02
2018-02-23T18:14:17.599Z,98273.29
2018-02-23T18:16:45.100Z,98271.05
2018-02-23T18:19:12.620Z,98271.98
2018-02-23T18:21:40.219Z,98269.30
2018-02-23T18:24:08.808Z,98268.05
2018-02-23T18:26:36.300Z,98273.86
2018-02-23T18:29:03.824Z,98278.55
2018-02-23T18:31:31.316Z,98280.32
2018-02-23T18:33:58.940Z,98283.67
2018-02-23T18:36:27.985Z,98279.69
2018-02-23T18:38:55.510Z,98280.72
2018-02-23T18:41:23.003Z,98292.13
2018-02-23T18:43:50.515Z,98286.44
2018-02-23T18:46:18.031Z,98283.10
2018-02-23T18:48:45.526Z,98289.72
2018-02-23T18:51:13.051Z,98294.98
2018-02-23T18:53:40.559Z,98296.38
2018-02-23T18:56:08.067Z,98293.48
2018-02-23T18:58:35.565Z,98288.41
2018-02-23T19:01:03.126Z,98288.20
2018-02-23T19:03:30.656Z,98284.36
2018-02-23T19:05:58.176Z,98286.52
2018-02-23T19:08:25.672Z,98285.78
2018-02-23T19:10:53.216Z,98284.47
2018-02-23T19:13:20.721Z,98286.58
2018-02-23T19:15:48.235Z,98276.05
2018-02-23T19:18:15.720Z,98280.72
2018-02-23T19:20:43.297Z,98276.29
2018-02-23T19:23:10.793Z,98277.79
2018-02-23T19:25:38.303Z,98282.36
2018-02-23T19:28:05.805Z,98281.14
2018-02-23T19:30:33.320Z,98280.62
2018-02-23T19:33:00.811Z,98292.77
2018-02-23T19:35:28.344Z,98294.97
2018-02-23T19:37:55.836Z,98292.72
2018-02-23T19:40:23.351Z,98290.28
2018-02-23T19:42:50.840Z,98289.48
2018-02-23T19:45:18.359Z,98299.59
2018-02-23T19:47:45.939Z,98298.59
2018-02-23T19:50:13.495Z,98297.80
2018-02-23T19:52:40.981Z,98300.05
2018-02-23T19:55:08.516Z,98298.69
2018-02-23T19:57:36.020Z,98298.97
2018-02-23T20:00:03.545Z,98301.17
2018-02-23T20:02:31.036Z,98300.48
2018-02-23T20:04:58.552Z,98297.94
2018-02-23T20:07:26.058Z,98300.95
2018-02-23T20:09:53.571Z,98293.38
2018-02-23T20:12:21.068Z,98292.11
2018-02-23T20:14:48.607Z,98290.28
2018-02-23T20:17:16.115Z,98287.98
2018-02-23T20:19:43.613Z,98286.42
2018-02-23T20:22:11.143Z,98292.00
2018-02-23T20:24:38.719Z,98289.51
2018-02-23T20:27:06.238Z,98288.77
2018-02-23T20:29:33.759Z,98293.28
2018-02-23T20:32:01.293Z,98288.39
2018-02-23T20:34:28.793Z,98287.87
2018-02-23T20:36:57.247Z,98289.70
2018-02-23T20:39:24.804Z,98288.81
2018-02-23T20:41:52.366Z,98288.73
2018-02-23T20:44:19.920Z,98279.52
2018-02-23T20:46:47.452Z,98280.84
2018-02-23T20:49:14.956Z,98276.13
2018-02-23T20:51:42.493Z,98276.94
2018-02-23T20:54:10.017Z,98275.20
2018-02-23T20:56:37.527Z,98284.48
2018-02-23T20:59:05.053Z,98272.16
2018-02-23T21:01:32.640Z,98275.12
2018-02-23T21:04:00.140Z,98266.92
2018-02-23T21:06:27.764Z,98262.96
2018-02-23T21:08:55.312Z,98272.13
2018-02-23T21:11:22.819Z,98272.97
2018-02-23T21:13:50.315Z,98270.14
2018-02-23T21:16:17.887Z,98279.91
2018-02-23T21:18:45.385Z,98270.92
2018-02-23T21:21:12.903Z,98266.14
2018-02-23T21:23:40.508Z,98264.41
2018-02-23T21:26:08.015Z,98266.79
2018-02-23T21:28:35.503Z,98261.52
2018-02-23T21:31:03.033Z,98265.98
2018-02-23T21:33:30.552Z,98267.09
2018-02-23T21:35:58.104Z,98260.20
2018-02-23T21:38:25.580Z,98258.09
2018-02-23T21:40:53.251Z,98257.05
2018-02-23T21:43:21.634Z,98257.38
2018-02-23T21:45:49.147Z,98256.42
2018-02-23T21:48:16.635Z,98255.70
2018-02-23T21:50:44.149Z,98251.37
2018-02-23T21:53:11.645Z,98260.16
2018-02-23T21:55:39.166Z,98260.58
2018-02-23T21:58:06.680Z,98264.00
2018-02-23T22:00:34.389Z,98255.43
2018-02-23T22:03:01.907Z,98262.23
2018-02-23T22:05:30.379Z,98259.39
2018-02-23T22:07:57.898Z,98263.89
2018-02-23T22:10:25.392Z,98251.69
2018-02-23T22:12:52.916Z,98257.64
2018-02-23T22:15:20.411Z,98252.81
2018-02-23T22:17:47.916Z,98262.58
2018-02-23T22:20:15.427Z,98264.66
2018-02-23T22:22:42.936Z,98263.33
2018-02-23T22:25:10.431Z,98264.13
2018-02-23T22:27:37.943Z,98264.45
2018-02-23T22:30:05.434Z,98264.70
2018-02-23T22:32:32.947Z,98262.60
2018-02-23T22:35:00.437Z,98259.55
2018-02-23T22:37:27.968Z,98259.33
2018-02-23T22:39:55.637Z,98253.69
2018-02-23T22:42:23.147Z,98255.34
2018-02-23T22:44:50.694Z,98252.34
2018-02-23T22:47:18.211Z,98250.14
2018-02-23T22:49:45.715Z,98245.86
2018-02-23T22:52:13.236Z,98246.70
2018-02-23T22:54:40.730Z,98249.13
2018-02-23T22:57:08.264Z,98239.28
2018-02-23T22:59:35.759Z,98252.92
2018-02-23T23:02:03.297Z,98251.02
2018-02-23T23:04:30.783Z,98245.29
2018-02-23T23:06:58.305Z,98245.35
2018-02-23T23:09:25.797Z,98243.13
2018-02-23T23:11:53.316Z,98246.09
2018-02-23T23:14:20.883Z,98241.20
2018-02-23T23:16:48.445Z,98251.48
2018-02-23T23:19:15.944Z,98248.98
2018-02-23T23:21:43.454Z,98250.09
2018-02-23T23:24:10.943Z,98245.73
2018-02-23T23:26:38.478Z,98250.84
2018-02-23T23:29:05.968Z,98248.52
2018-02-23T23:31:33.495Z,98256.42
2018-02-23T23:34:01.008Z,98249.94
2018-02-23T23:36:28.560Z,98245.36
2018-02-23T23:38:56.036Z,98244.03
2018-02-23T23:41:23.531Z,98244.47
2018-02-23T23:43:51.043Z,98252.42
2018-02-23T23:46:18.539Z,98244.52
2018-02-23T23:48:46.052Z,98237.14
2018-02-23T23:51:14.201Z,98240.25
2018-02-23T23:53:41.783Z,98233.88
2018-02-23T23:56:09.284Z,98234.26
2018-02-23T23:58:36.815Z,98233.50
